createdAt,value
2018-04-28T00:02:01.946Z,10.10
2018-04-28T00:04:28.043Z,10.20
2018-04-28T00:06:54.125Z,10.20
2018-04-28T00:09:20.222Z,10.10
2018-04-28T00:11:46.314Z,10.10
2018-04-28T00:14:12.410Z,10.10
2018-04-28T00:16:46.603Z,10.10
2018-04-28T00:19:15.145Z,10.20
2018-04-28T00:21:41.229Z,10.20
2018-04-28T00:24:07.328Z,10.20
2018-04-28T00:26:33.413Z,10.30
2018-04-28T00:29:00.282Z,10.40
2018-04-28T00:31:31.168Z,10.50
2018-04-28T00:33:57.260Z,10.60
2018-04-28T00:39:42.154Z,10.70
2018-04-28T00:42:08.973Z,10.80
2018-04-28T00:44:35.068Z,10.80
2018-04-28T00:47:08.074Z,10.90
2018-04-28T00:49:41.941Z,10.90
2018-04-28T00:52:08.026Z,11.00
2018-04-28T00:54:47.959Z,11.00
2018-04-28T01:00:18.943Z,11.10
2018-04-28T01:02:45.014Z,11.20
2018-04-28T01:05:21.099Z,11.20
2018-04-28T01:07:49.222Z,11.20
2018-04-28T01:10:16.338Z,11.30
2018-04-28T01:12:42.425Z,11.40
2018-04-28T01:15:13.265Z,11.40
2018-04-28T01:17:39.350Z,11.40
2018-04-28T01:20:06.181Z,11.40
2018-04-28T01:22:34.941Z,11.40
2018-04-28T01:25:01.050Z,11.40
2018-04-28T01:27:42.579Z,11.50
2018-04-28T01:33:37.922Z,11.60
2018-04-28T01:36:07.787Z,11.70
2018-04-28T01:38:33.873Z,11.70
2018-04-28T01:41:01.490Z,11.80
2018-04-28T01:43:37.749Z,11.80
2018-04-28T01:46:08.741Z,11.80
2018-04-28T01:48:35.565Z,11.90
2018-04-28T01:51:10.768Z,11.90
2018-04-28T01:57:26.672Z,11.90
2018-04-28T02:02:52.571Z,11.80
2018-04-28T02:08:41.462Z,11.70
2018-04-28T02:11:23.950Z,11.60
2018-04-28T02:13:50.047Z,11.60
2018-04-28T02:16:20.862Z,11.60
2018-04-28T02:22:12.010Z,11.60
2018-04-28T02:25:06.249Z,11.60
2018-04-28T02:27:44.217Z,11.60
2018-04-28T02:30:10.299Z,11.60
2018-04-28T02:32:36.398Z,11.60
2018-04-28T02:38:12.569Z,11.50
2018-04-28T02:40:43.460Z,11.50
2018-04-28T02:43:10.326Z,11.50
2018-04-28T02:45:37.150Z,11.40
2018-04-28T02:48:14.433Z,11.40
2018-04-28T02:51:02.642Z,11.40
2018-04-28T02:53:39.479Z,11.40
2018-04-28T02:56:19.696Z,11.40
2018-04-28T02:59:00.153Z,11.30
2018-04-28T03:01:34.125Z,11.30
2018-04-28T03:04:00.206Z,11.30
2018-04-28T03:06:26.273Z,11.20
2018-04-28T03:08:52.388Z,11.10
2018-04-28T03:11:19.233Z,11.00
2018-04-28T03:13:50.296Z,10.90
2018-04-28T03:16:33.096Z,10.80
2018-04-28T03:19:05.416Z,10.80
2018-04-28T03:21:31.492Z,10.70
2018-04-28T03:24:03.617Z,10.60
2018-04-28T03:26:31.612Z,10.50
2018-04-28T03:29:13.692Z,10.40
2018-04-28T03:31:39.783Z,10.30
2018-04-28T03:34:09.516Z,10.10
2018-04-28T03:36:36.580Z,10.10
2018-04-28T03:42:09.240Z,9.90
2018-04-28T03:44:45.204Z,9.80
2018-04-28T03:50:21.501Z,9.60
2018-04-28T03:52:51.491Z,9.60
2018-04-28T03:55:17.569Z,9.60
2018-04-28T03:58:02.240Z,9.60
2018-04-28T04:00:46.927Z,9.60
2018-04-28T04:03:24.503Z,9.60
2018-04-28T04:08:53.030Z,9.60
2018-04-28T04:14:25.713Z,9.60
2018-04-28T04:16:58.848Z,9.60
2018-04-28T04:22:53.881Z,9.70
2018-04-28T04:25:26.020Z,9.80
2018-04-28T04:31:30.639Z,10.00
2018-04-28T04:33:56.719Z,10.10
2018-04-28T04:36:34.005Z,10.20
2018-04-28T04:42:35.787Z,10.50
2018-04-28T04:45:08.803Z,10.60
2018-04-28T04:47:43.944Z,10.70
2018-04-28T04:53:18.545Z,11.40
2018-04-28T04:59:04.205Z,12.20
2018-04-28T05:04:49.447Z,12.90
2018-04-28T05:07:18.107Z,13.60
2018-04-28T05:09:51.088Z,13.60
2018-04-28T05:12:28.264Z,13.90
2018-04-28T05:15:12.852Z,14.20
2018-04-28T05:17:39.653Z,14.70
2018-04-28T05:20:23.189Z,14.70
2018-04-28T05:23:02.569Z,15.00
2018-04-28T05:25:38.605Z,15.90
2018-04-28T05:28:09.778Z,15.90
2018-04-28T05:30:42.340Z,16.40
2018-04-28T05:33:08.396Z,16.30
2018-04-28T05:39:10.820Z,17.80
2018-04-28T05:41:52.933Z,18.40
2018-04-28T05:44:29.073Z,18.90
2018-04-28T05:47:02.979Z,19.60
2018-04-28T05:52:52.556Z,20.30
2018-04-28T05:55:24.675Z,21.10
2018-04-28T06:00:53.648Z,21.90
2018-04-28T06:03:29.956Z,22.50
2018-04-28T06:09:31.919Z,23.50
2018-04-28T06:12:04.037Z,24.40
2018-04-28T06:14:41.087Z,26.60
2018-04-28T06:20:22.566Z,27.10
2018-04-28T06:22:48.657Z,27.60
2018-04-28T06:25:15.481Z,28.60
2018-04-28T06:27:41.544Z,28.50
2018-04-28T06:30:07.628Z,28.70
2018-04-28T06:32:33.702Z,28.60
2018-04-28T06:34:59.812Z,28.30
2018-04-28T06:37:25.897Z,27.90
2018-04-28T06:39:51.976Z,27.90
2018-04-28T06:42:18.067Z,28.00
2018-04-28T06:44:44.900Z,28.70
2018-04-28T06:47:10.981Z,28.70
2018-04-28T06:49:37.055Z,28.80
2018-04-28T06:52:03.206Z,28.70
2018-04-28T06:54:29.232Z,28.80
2018-04-28T06:56:55.319Z,28.80
2018-04-28T06:59:21.400Z,28.80
2018-04-28T07:01:47.483Z,28.40
2018-04-28T07:04:13.558Z,28.40
2018-04-28T07:06:39.624Z,28.20
2018-04-28T07:09:05.716Z,28.10
2018-04-28T07:11:31.780Z,28.00
2018-04-28T07:13:57.892Z,28.10
2018-04-28T07:16:23.970Z,28.30
2018-04-28T07:18:50.065Z,28.40
2018-04-28T07:21:16.892Z,28.50
2018-04-28T07:23:42.983Z,28.50
2018-04-28T07:26:09.060Z,28.40
2018-04-28T07:28:35.144Z,28.40
2018-04-28T07:31:01.220Z,28.40
2018-04-28T07:33:28.048Z,27.90
2018-04-28T07:35:54.125Z,27.90
2018-04-28T07:38:20.215Z,27.80
2018-04-28T07:40:47.032Z,27.70
2018-04-28T07:43:34.483Z,27.70
2018-04-28T07:46:01.322Z,27.50
2018-04-28T07:54:31.297Z,27.40
2018-04-28T07:56:57.384Z,27.40
2018-04-28T07:59:23.486Z,27.50
2018-04-28T08:01:49.552Z,27.50
2018-04-28T08:04:16.381Z,27.30
2018-04-28T08:06:42.460Z,27.30
2018-04-28T08:09:08.542Z,27.10
2018-04-28T08:11:35.389Z,27.00
2018-04-28T08:14:02.216Z,27.10
2018-04-28T08:16:28.300Z,27.10
2018-04-28T08:18:54.392Z,27.20
2018-04-28T08:21:21.220Z,27.30
2018-04-28T08:23:48.036Z,27.20
2018-04-28T08:26:14.123Z,27.20
2018-04-28T08:28:40.195Z,27.40
2018-04-28T08:31:06.269Z,27.50
2018-04-28T08:33:32.359Z,27.70
2018-04-28T08:35:58.436Z,27.90
2018-04-28T08:38:24.507Z,28.00
2018-04-28T08:40:50.573Z,28.30
2018-04-28T08:43:16.656Z,28.50
2018-04-28T08:45:42.741Z,28.70
2018-04-28T08:48:08.828Z,28.90
2018-04-28T08:50:35.651Z,29.20
2018-04-28T08:53:01.732Z,29.20
2018-04-28T08:55:27.815Z,29.30
2018-04-28T08:57:53.895Z,29.10
2018-04-28T09:00:28.288Z,28.90
2018-04-28T09:02:54.380Z,28.90
2018-04-28T09:05:21.212Z,29.20
2018-04-28T09:07:47.292Z,29.20
2018-04-28T09:10:13.384Z,29.40
2018-04-28T09:12:40.204Z,29.30
2018-04-28T09:15:06.296Z,29.40
2018-04-28T09:17:32.381Z,29.50
2018-04-28T09:19:59.236Z,29.70
2018-04-28T09:22:25.324Z,29.70
2018-04-28T09:24:52.165Z,29.80
2018-04-28T09:27:18.252Z,29.70
2018-04-28T09:29:44.344Z,29.90
2018-04-28T09:32:11.196Z,30.00
2018-04-28T09:35:08.699Z,30.00
2018-04-28T09:37:34.792Z,30.10
2018-04-28T09:40:00.931Z,30.20
2018-04-28T09:42:27.720Z,30.50
2018-04-28T09:44:53.816Z,30.50
2018-04-28T09:47:19.904Z,30.70
2018-04-28T09:49:46.055Z,30.80
2018-04-28T09:52:12.844Z,31.10
2018-04-28T09:54:39.672Z,31.10
2018-04-28T09:57:05.793Z,31.10
2018-04-28T09:59:31.876Z,31.10
2018-04-28T10:01:57.959Z,31.20
2018-04-28T10:04:24.043Z,31.00
2018-04-28T10:06:50.114Z,30.70
2018-04-28T10:09:16.948Z,30.60
2018-04-28T10:11:43.046Z,30.60
2018-04-28T10:14:09.132Z,30.50
2018-04-28T10:16:35.205Z,30.70
2018-04-28T10:19:01.301Z,30.80
2018-04-28T10:21:27.378Z,30.80
2018-04-28T10:23:53.464Z,30.80
2018-04-28T10:26:19.540Z,30.80
2018-04-28T10:28:46.388Z,30.90
2018-04-28T10:31:13.213Z,31.00
2018-04-28T10:33:39.280Z,31.00
2018-04-28T10:36:05.368Z,30.90
2018-04-28T10:38:31.444Z,30.90
2018-04-28T10:40:57.532Z,30.80
2018-04-28T10:43:24.344Z,31.20
2018-04-28T10:45:50.428Z,31.10
2018-04-28T10:48:16.504Z,31.10
2018-04-28T10:50:42.575Z,30.90
2018-04-28T10:53:08.636Z,30.90
2018-04-28T10:55:34.753Z,30.80
2018-04-28T10:58:00.839Z,30.90
2018-04-28T11:00:26.924Z,31.10
2018-04-28T11:02:53.020Z,31.10
2018-04-28T11:05:19.121Z,31.00
2018-04-28T11:07:45.208Z,30.80
2018-04-28T11:13:44.197Z,30.30
2018-04-28T11:16:10.289Z,30.30
2018-04-28T11:18:36.393Z,29.90
2018-04-28T11:21:03.232Z,29.50
2018-04-28T11:23:30.060Z,29.60
2018-04-28T11:25:56.159Z,29.60
2018-04-28T11:28:22.250Z,29.80
2018-04-28T11:30:48.340Z,29.70
2018-04-28T11:33:14.436Z,29.40
2018-04-28T11:35:40.533Z,29.30
2018-04-28T11:38:06.629Z,29.50
2018-04-28T11:40:33.473Z,29.80
2018-04-28T11:43:00.305Z,30.00
2018-04-28T11:45:26.392Z,30.00
2018-04-28T11:47:52.481Z,30.20
2018-04-28T11:50:19.324Z,30.50
2018-04-28T11:52:46.156Z,30.60
2018-04-28T11:55:12.980Z,30.50
2018-04-28T11:57:39.060Z,30.50
2018-04-28T12:03:19.572Z,30.30
2018-04-28T12:05:45.674Z,30.30
2018-04-28T12:08:11.747Z,30.50
2018-04-28T12:10:37.845Z,30.60
2018-04-28T12:13:03.937Z,30.80
2018-04-28T12:15:30.048Z,31.10
2018-04-28T12:17:56.140Z,31.40
2018-04-28T12:20:22.218Z,31.50
2018-04-28T12:22:48.325Z,31.40
2018-04-28T12:25:14.411Z,31.50
2018-04-28T12:27:40.505Z,31.70
2018-04-28T12:30:06.614Z,31.90
2018-04-28T12:32:33.420Z,32.20
2018-04-28T12:34:59.496Z,32.20
2018-04-28T12:37:25.579Z,32.40
2018-04-28T12:39:52.390Z,31.80
2018-04-28T12:42:18.468Z,31.80
2018-04-28T12:44:44.552Z,31.20
2018-04-28T12:47:10.633Z,30.90
2018-04-28T12:49:36.711Z,30.70
2018-04-28T12:52:02.789Z,30.40
2018-04-28T12:54:28.871Z,30.10
2018-04-28T12:56:55.696Z,30.10
2018-04-28T12:59:21.776Z,30.10
2018-04-28T13:01:47.866Z,30.10
2018-04-28T13:04:14.688Z,30.30
2018-04-28T13:06:40.781Z,30.30
2018-04-28T13:09:06.866Z,30.30
2018-04-28T13:11:33.692Z,29.80
2018-04-28T13:13:59.785Z,29.80
2018-04-28T13:16:39.066Z,29.50
2018-04-28T13:19:05.889Z,29.10
2018-04-28T13:21:31.975Z,29.00
2018-04-28T13:23:58.058Z,28.90
2018-04-28T13:26:24.889Z,29.20
2018-04-28T13:28:50.980Z,29.20
2018-04-28T13:31:17.083Z,29.30
2018-04-28T13:33:43.168Z,29.40
2018-04-28T13:36:10.023Z,29.80
2018-04-28T13:38:36.883Z,29.70
2018-04-28T13:41:03.029Z,29.70
2018-04-28T13:43:29.056Z,29.70
2018-04-28T13:45:55.162Z,29.80
2018-04-28T13:48:21.241Z,30.00
2018-04-28T13:50:47.317Z,29.70
2018-04-28T13:53:13.410Z,29.20
2018-04-28T13:55:40.253Z,28.70
2018-04-28T13:58:27.693Z,28.60
2018-04-28T14:00:54.524Z,28.60
2018-04-28T14:03:21.505Z,28.60
2018-04-28T14:05:47.637Z,28.60
2018-04-28T14:08:13.752Z,28.60
2018-04-28T14:10:39.852Z,28.50
2018-04-28T14:13:12.224Z,28.20
2018-04-28T14:15:39.056Z,28.00
2018-04-28T14:18:05.155Z,28.00
2018-04-28T14:20:31.252Z,27.90
2018-04-28T14:22:57.365Z,27.80
2018-04-28T14:25:23.472Z,27.70
2018-04-28T14:27:50.312Z,27.60
2018-04-28T14:30:17.160Z,27.60
2018-04-28T14:32:44.000Z,27.70
2018-04-28T14:35:10.089Z,27.70
2018-04-28T14:37:36.172Z,27.70
2018-04-28T14:40:02.270Z,27.60
2018-04-28T14:42:40.355Z,27.30
2018-04-28T14:45:06.473Z,27.30
2018-04-28T14:47:32.556Z,27.20
2018-04-28T14:49:58.655Z,27.20
2018-04-28T14:52:25.504Z,27.10
2018-04-28T14:54:52.359Z,27.10
2018-04-28T14:57:18.468Z,27.10
2018-04-28T14:59:45.307Z,27.20
2018-04-28T15:02:12.141Z,27.30
2018-04-28T15:04:38.226Z,27.20
2018-04-28T15:07:04.319Z,27.20
2018-04-28T15:09:31.225Z,27.30
2018-04-28T15:11:57.265Z,27.20
2018-04-28T15:14:24.099Z,27.50
2018-04-28T15:16:50.203Z,27.50
2018-04-28T15:19:16.291Z,27.80
2018-04-28T15:21:42.388Z,28.10
2018-04-28T15:24:08.508Z,28.30
2018-04-28T15:39:01.277Z,28.20
2018-04-28T15:41:27.360Z,28.20
2018-04-28T15:43:53.460Z,27.80
2018-04-28T15:46:19.548Z,27.60
2018-04-28T15:48:45.668Z,27.40
2018-04-28T15:51:12.496Z,27.10
2018-04-28T15:53:38.585Z,27.10
2018-04-28T15:56:04.682Z,27.20
2018-04-28T15:58:30.756Z,27.10
2018-04-28T16:00:56.837Z,27.20
2018-04-28T16:03:22.932Z,27.20
2018-04-28T16:05:49.777Z,27.10
2018-04-28T16:08:16.608Z,27.00
2018-04-28T16:10:43.459Z,27.00
2018-04-28T16:13:09.533Z,27.00
2018-04-28T16:15:35.631Z,26.90
2018-04-28T16:18:01.703Z,26.90
2018-04-28T16:20:27.779Z,26.80
2018-04-28T16:22:53.860Z,26.60
2018-04-28T16:25:19.943Z,26.30
2018-04-28T16:27:46.024Z,26.00
2018-04-28T16:30:12.840Z,25.30
2018-04-28T16:32:38.920Z,25.30
2018-04-28T16:35:04.981Z,25.00
2018-04-28T16:37:31.073Z,24.80
2018-04-28T16:39:57.156Z,24.50
2018-04-28T16:42:23.236Z,24.30
2018-04-28T16:44:49.329Z,24.20
2018-04-28T16:47:16.141Z,23.80
2018-04-28T16:49:42.229Z,23.80
2018-04-28T16:52:08.304Z,23.70
2018-04-28T16:54:34.428Z,23.60
2018-04-28T16:57:00.536Z,23.50
2018-04-28T16:59:26.628Z,23.40
2018-04-28T17:01:52.707Z,23.30
2018-04-28T17:04:18.800Z,23.20
2018-04-28T17:06:45.644Z,22.80
2018-04-28T17:09:11.758Z,22.80
2018-04-28T17:11:37.842Z,22.60
2018-04-28T17:14:03.937Z,22.50
2018-04-28T17:16:30.029Z,22.30
2018-04-28T17:18:56.120Z,22.30
2018-04-28T17:21:22.970Z,22.20
2018-04-28T17:23:49.795Z,22.10
2018-04-28T17:26:15.889Z,22.00
2018-04-28T17:28:41.971Z,22.00
2018-04-28T17:31:08.069Z,21.90
2018-04-28T17:33:34.155Z,21.80
2018-04-28T17:36:00.266Z,21.80
2018-04-28T17:38:26.360Z,21.70
2018-04-28T17:40:53.184Z,21.40
2018-04-28T17:43:19.284Z,21.40
2018-04-28T17:45:45.380Z,21.20
2018-04-28T17:48:11.471Z,21.00
2018-04-28T17:50:38.301Z,20.60
2018-04-28T17:53:04.400Z,20.60
2018-04-28T17:55:30.492Z,20.40
2018-04-28T17:57:56.586Z,20.20
2018-04-28T18:00:22.669Z,20.00
2018-04-28T18:02:48.934Z,19.80
2018-04-28T18:05:14.859Z,19.70
2018-04-28T18:07:40.943Z,19.50
2018-04-28T18:10:07.032Z,19.40
2018-04-28T18:12:33.848Z,19.10
2018-04-28T18:14:59.935Z,19.00
2018-04-28T18:17:26.024Z,18.90
2018-04-28T18:19:52.863Z,18.60
2018-04-28T18:22:19.692Z,18.50
2018-04-28T18:24:45.787Z,18.50
2018-04-28T18:27:11.869Z,18.40
2018-04-28T18:29:37.984Z,18.40
2018-04-28T18:32:04.807Z,18.30
2018-04-28T18:34:30.883Z,18.30
2018-04-28T18:36:56.976Z,18.30
2018-04-28T18:39:23.812Z,18.20
2018-04-28T18:41:50.656Z,18.10
2018-04-28T18:44:17.489Z,18.00
2018-04-28T18:46:43.601Z,18.00
2018-04-28T18:49:09.681Z,17.90
2018-04-28T18:51:35.780Z,17.90
2018-04-28T18:54:02.600Z,17.70
2018-04-28T18:56:28.708Z,17.70
2018-04-28T18:58:54.792Z,17.70
2018-04-28T19:01:20.855Z,17.60
2018-04-28T19:03:46.943Z,17.60
2018-04-28T19:06:13.019Z,17.50
2018-04-28T19:08:39.099Z,17.40
2018-04-28T19:11:24.118Z,17.30
2018-04-28T19:13:50.210Z,17.30
2018-04-28T19:16:16.283Z,17.20
2018-04-28T19:18:42.367Z,17.10
2018-04-28T19:21:08.444Z,16.90
2018-04-28T19:23:34.533Z,16.80
2018-04-28T19:26:00.622Z,16.70
2018-04-28T19:28:26.736Z,16.60
2018-04-28T19:30:52.812Z,16.50
2018-04-28T19:33:18.891Z,16.40
2018-04-28T19:35:44.972Z,16.30
2018-04-28T19:38:11.049Z,16.30
2018-04-28T19:40:37.128Z,16.30
2018-04-28T19:43:03.216Z,16.30
2018-04-28T19:45:29.295Z,16.30
2018-04-28T19:47:56.113Z,16.30
2018-04-28T19:50:22.192Z,16.30
2018-04-28T19:52:48.272Z,16.30
2018-04-28T19:55:14.373Z,16.30
2018-04-28T19:57:40.448Z,16.30
2018-04-28T20:00:07.269Z,16.30
2018-04-28T20:02:33.346Z,16.30
2018-04-28T20:04:59.431Z,16.30
2018-04-28T20:07:26.260Z,16.20
2018-04-28T20:09:52.408Z,16.20
2018-04-28T20:12:18.417Z,16.20
2018-04-28T20:14:44.513Z,16.20
2018-04-28T20:17:10.579Z,16.20
2018-04-28T20:19:37.388Z,16.00
2018-04-28T20:22:22.324Z,16.00
2018-04-28T20:25:07.040Z,15.90
2018-04-28T20:27:33.860Z,15.80
2018-04-28T20:30:03.882Z,15.80
2018-04-28T20:32:29.960Z,15.70
2018-04-28T20:34:56.023Z,15.70
2018-04-28T20:37:22.108Z,15.60
2018-04-28T20:39:48.171Z,15.50
2018-04-28T20:42:14.248Z,15.40
2018-04-28T20:44:41.062Z,15.40
2018-04-28T20:47:07.146Z,15.40
2018-04-28T20:49:33.211Z,15.40
2018-04-28T20:51:59.284Z,15.30
2018-04-28T20:54:25.349Z,15.30
2018-04-28T20:56:51.444Z,15.30
2018-04-28T20:59:17.541Z,15.20
2018-04-28T21:01:44.367Z,15.10
2018-04-28T21:04:11.180Z,15.10
2018-04-28T21:06:37.263Z,15.10
2018-04-28T21:15:04.537Z,14.90
2018-04-28T21:17:52.380Z,14.90
2018-04-28T21:20:19.196Z,14.80
2018-04-28T21:22:45.268Z,14.80
2018-04-28T21:25:13.403Z,14.80
2018-04-28T21:28:11.541Z,14.80
2018-04-28T21:30:58.089Z,14.80
2018-04-28T21:33:24.907Z,14.70
2018-04-28T21:35:56.293Z,14.70
2018-04-28T21:38:24.162Z,14.60
2018-04-28T21:40:52.329Z,14.50
2018-04-28T21:43:19.156Z,14.40
2018-04-28T21:45:45.240Z,14.40
2018-04-28T21:57:21.248Z,14.10
2018-04-28T21:59:47.332Z,14.00
2018-04-28T22:02:14.141Z,14.00
2018-04-28T22:04:40.223Z,14.00
2018-04-28T22:07:06.299Z,13.90
2018-04-28T22:09:32.371Z,13.90
2018-04-28T22:11:58.455Z,13.80
2018-04-28T22:14:24.538Z,13.80
2018-04-28T22:16:50.636Z,13.70
2018-04-28T22:19:17.447Z,13.70
2018-04-28T22:21:43.523Z,13.70
2018-04-28T22:24:25.370Z,13.60
2018-04-28T22:27:12.984Z,13.60
2018-04-28T22:29:39.067Z,13.70
2018-04-28T22:32:08.292Z,13.60
2018-04-28T22:37:34.604Z,13.60
2018-04-28T22:40:00.676Z,13.60
2018-04-28T22:42:38.048Z,13.50
2018-04-28T22:45:04.135Z,13.50
2018-04-28T22:47:31.292Z,13.50
2018-04-28T22:49:58.120Z,13.40
2018-04-28T22:52:24.232Z,13.40
2018-04-28T22:54:50.294Z,13.40
2018-04-28T22:57:23.820Z,13.40
2018-04-28T22:59:49.895Z,13.40
2018-04-28T23:02:16.158Z,13.50
2018-04-28T23:05:13.444Z,13.50
2018-04-28T23:07:52.063Z,13.60
2018-04-28T23:10:18.298Z,13.70
2018-04-28T23:13:16.469Z,13.70
2018-04-28T23:15:42.556Z,13.70
2018-04-28T23:18:09.388Z,13.50
2018-04-28T23:20:42.524Z,13.50
2018-04-28T23:23:09.655Z,13.50
2018-04-28T23:25:54.563Z,13.40
2018-04-28T23:28:20.660Z,13.40
2018-04-28T23:30:46.751Z,13.30
2018-04-28T23:33:13.600Z,13.20
2018-04-28T23:35:40.428Z,13.20
2018-04-28T23:38:06.515Z,13.10
2018-04-28T23:40:32.618Z,13.10
2018-04-28T23:42:58.709Z,13.00
2018-04-28T23:45:25.552Z,12.90
2018-04-28T23:47:52.383Z,12.90
2018-04-28T23:50:18.493Z,12.80
2018-04-28T23:52:44.589Z,12.80
2018-04-28T23:55:10.709Z,12.80
2018-04-28T23:57:36.792Z,12.80
